createdAt,value
2023-04-24T00:03:09.860Z,992.07
2023-04-24T00:23:07.770Z,991.912
2023-04-24T00:43:10.989Z,991.777
2023-04-24T01:03:09.415Z,991.616
2023-04-24T01:23:07.321Z,991.652
2023-04-24T01:43:08.159Z,991.729
2023-04-24T02:03:09.626Z,991.682
2023-04-24T02:23:07.434Z,991.623
2023-04-24T02:43:07.263Z,991.635
2023-04-24T03:03:08.531Z,991.581
2023-04-24T03:23:07.517Z,991.665
2023-04-24T03:43:07.362Z,991.539
2023-04-24T04:03:09.087Z,991.673
2023-04-24T04:23:08.138Z,991.74
2023-04-24T04:43:08.213Z,991.932
2023-04-24T05:03:22.582Z,992.294
2023-04-24T05:23:07.458Z,992.253
2023-04-24T05:43:07.336Z,992.165
2023-04-24T06:03:09.100Z,992.253
2023-04-24T06:23:07.182Z,992.375
2023-04-24T06:43:08.340Z,992.495
2023-04-24T07:03:09.069Z,992.529
2023-04-24T07:23:07.915Z,992.591
2023-04-24T07:43:07.777Z,992.725
2023-04-24T08:03:09.098Z,993
2023-04-24T08:23:08.019Z,992.982
2023-04-24T08:43:08.012Z,993.008
2023-04-24T09:03:09.289Z,993.016
2023-04-24T09:23:07.066Z,993.038
2023-04-24T09:43:08.043Z,993.044
2023-04-24T10:03:09.674Z,993.291
2023-04-24T10:23:07.775Z,993.527
2023-04-24T10:43:07.808Z,993.914
2023-04-24T11:03:09.261Z,994.138
2023-04-24T11:23:08.091Z,994.552
2023-04-24T11:43:08.966Z,994.733
2023-04-24T12:03:09.714Z,995.554
2023-04-24T12:23:07.767Z,995.965
2023-04-24T12:43:07.744Z,996.162
2023-04-24T13:03:09.094Z,996.452
2023-04-24T13:23:07.316Z,996.676
2023-04-24T13:43:07.330Z,996.738
2023-04-24T14:03:08.887Z,996.823
2023-04-24T14:23:07.918Z,997.006
2023-04-24T14:43:08.022Z,997.044
2023-04-24T15:03:10.066Z,997.365
2023-04-24T15:23:07.229Z,997.588
2023-04-24T15:43:07.201Z,997.671
2023-04-24T16:03:11.405Z,997.828
2023-04-24T16:23:07.570Z,997.87
2023-04-24T16:43:07.452Z,998.122
2023-04-24T17:03:13.310Z,998.164
2023-04-24T17:23:07.380Z,998.267
2023-04-24T17:43:07.539Z,998.295
2023-04-24T18:03:09.257Z,998.397
2023-04-24T18:23:07.336Z,998.542
2023-04-24T18:43:07.647Z,998.599
2023-04-24T19:03:09.531Z,998.817
2023-04-24T19:23:07.495Z,999.127
2023-04-24T19:43:07.621Z,999.196
2023-04-24T20:03:33.189Z,999.135
2023-04-24T20:23:07.928Z,999.217
2023-04-24T20:43:07.975Z,999.296
2023-04-24T21:03:09.341Z,999.301
2023-04-24T21:23:07.248Z,999.316
2023-04-24T21:43:07.278Z,999.267
2023-04-24T22:03:09.319Z,999.314
2023-04-24T22:23:07.158Z,999.332
2023-04-24T22:43:07.969Z,999.232
2023-04-24T23:03:09.484Z,999.171
2023-04-24T23:23:07.154Z,999.238
2023-04-24T23:43:09.531Z,999.204
